createdAt,value
2023-03-26T00:02:04.085Z,74.27
2023-03-26T00:04:34.057Z,74.24
2023-03-26T00:07:00.732Z,74.39
2023-03-26T00:09:30.331Z,74.14
2023-03-26T00:11:57.404Z,74.24
2023-03-26T00:17:10.213Z,74.45
2023-03-26T00:19:37.974Z,74.53
2023-03-26T00:22:04.917Z,74.56
2023-03-26T00:24:32.063Z,74.95
2023-03-26T00:26:59.530Z,75.14
2023-03-26T00:29:28.043Z,75.31
2023-03-26T00:31:54.733Z,75.41
2023-03-26T00:34:22.971Z,75.68
2023-03-26T00:37:00.529Z,75.88
2023-03-26T00:42:15.117Z,76.03
2023-03-26T00:44:41.621Z,76.50
2023-03-26T00:47:08.384Z,76.60
2023-03-26T00:49:34.850Z,76.87
2023-03-26T00:52:02.979Z,76.91
2023-03-26T00:54:29.815Z,76.85
2023-03-26T00:56:56.316Z,76.59
2023-03-26T00:59:22.963Z,76.61
2023-03-26T01:01:51.185Z,76.41
2023-03-26T01:04:34.794Z,76.19
2023-03-26T01:07:05.663Z,76.20
2023-03-26T01:09:35.762Z,76.07
2023-03-26T01:12:03.649Z,76.06
2023-03-26T01:14:30.196Z,75.90
2023-03-26T01:17:01.710Z,76.16
2023-03-26T01:19:48.692Z,76.36
2023-03-26T01:22:20.733Z,76.43
2023-03-26T01:24:52.856Z,76.48
2023-03-26T01:27:34.494Z,76.89
2023-03-26T01:30:30.928Z,76.92
2023-03-26T01:33:23.522Z,76.77
2023-03-26T01:36:00.302Z,76.62
2023-03-26T01:38:39.823Z,76.60
2023-03-26T01:41:11.679Z,76.94
2023-03-26T01:44:02.562Z,77.29
2023-03-26T01:46:30.432Z,77.70
2023-03-26T01:48:56.946Z,78.28
2023-03-26T01:51:36.190Z,78.82
2023-03-26T01:54:03.463Z,78.89
2023-03-26T01:57:23.556Z,78.68
2023-03-26T02:00:13.575Z,78.90
2023-03-26T02:03:01.877Z,78.83
2023-03-26T02:05:43.750Z,78.71
2023-03-26T02:08:23.612Z,78.57
2023-03-26T02:10:55.709Z,78.71
2023-03-26T02:13:22.521Z,78.83
2023-03-26T02:16:03.306Z,79.03
2023-03-26T02:18:36.564Z,78.90
2023-03-26T02:21:06.256Z,78.79
2023-03-26T02:23:35.713Z,78.69
2023-03-26T02:26:06.207Z,78.74
2023-03-26T02:28:34.061Z,78.22
2023-03-26T02:31:01.670Z,78.37
2023-03-26T02:33:30.198Z,78.33
2023-03-26T02:36:01.865Z,77.82
2023-03-26T02:38:30.344Z,77.85
2023-03-26T02:40:56.949Z,77.71
2023-03-26T02:43:33.278Z,77.51
2023-03-26T02:46:00.149Z,77.25
2023-03-26T02:48:46.763Z,76.84
2023-03-26T02:51:21.817Z,76.83
2023-03-26T02:54:18.145Z,76.79
2023-03-26T02:57:01.082Z,76.78
2023-03-26T02:59:46.273Z,76.64
2023-03-26T03:02:31.644Z,76.40
2023-03-26T03:05:11.581Z,76.32
2023-03-26T03:07:38.811Z,76.26
2023-03-26T03:10:09.853Z,76.14
2023-03-26T03:12:55.187Z,75.99
2023-03-26T03:15:21.598Z,75.89
2023-03-26T03:17:48.085Z,75.79
2023-03-26T03:20:15.400Z,75.65
2023-03-26T03:22:42.337Z,75.48
2023-03-26T03:25:09.399Z,75.37
2023-03-26T03:27:39.172Z,75.40
2023-03-26T03:30:12.263Z,75.21
2023-03-26T03:33:07.982Z,75.43
2023-03-26T03:35:35.206Z,75.13
2023-03-26T03:38:01.956Z,75.03
2023-03-26T03:40:34.183Z,75.19
2023-03-26T03:43:00.799Z,75.05
2023-03-26T03:45:38.403Z,75.26
2023-03-26T03:48:13.599Z,75.38
2023-03-26T03:50:43.717Z,75.51
2023-03-26T03:53:22.417Z,75.54
2023-03-26T03:55:53.691Z,75.62
2023-03-26T03:58:24.423Z,75.83
2023-03-26T04:00:53.040Z,75.98
2023-03-26T04:03:46.138Z,75.58
2023-03-26T04:06:18.838Z,75.73
2023-03-26T04:08:50.176Z,76.05
2023-03-26T04:11:17.029Z,76.40
2023-03-26T04:14:02.662Z,76.58
2023-03-26T04:16:49.013Z,77.40
2023-03-26T04:19:16.098Z,77.37
2023-03-26T04:21:42.911Z,77.79
2023-03-26T04:24:10.760Z,78.10
2023-03-26T04:27:19.170Z,78.50
2023-03-26T04:29:49.581Z,78.69
2023-03-26T04:32:29.586Z,79.41
2023-03-26T04:35:00.576Z,79.65
2023-03-26T04:37:34.394Z,79.97
2023-03-26T04:40:20.173Z,80.24
2023-03-26T04:43:02.244Z,80.11
2023-03-26T04:45:48.945Z,80.13
2023-03-26T04:48:17.498Z,79.67
2023-03-26T04:50:45.070Z,80.13
2023-03-26T04:53:15.187Z,79.97
2023-03-26T04:56:30.701Z,79.87
2023-03-26T04:59:26.084Z,79.63
2023-03-26T05:01:54.465Z,79.57
2023-03-26T05:04:23.869Z,79.55
2023-03-26T05:06:52.718Z,79.09
2023-03-26T05:09:29.253Z,79.31
2023-03-26T05:12:24.739Z,79.61
2023-03-26T05:15:14.777Z,79.61
2023-03-26T05:17:48.328Z,79.45
2023-03-26T05:20:26.379Z,79.04
2023-03-26T05:22:53.230Z,78.92
2023-03-26T05:25:28.848Z,78.69
2023-03-26T05:27:56.248Z,78.50
2023-03-26T05:30:27.316Z,78.70
2023-03-26T05:32:58.561Z,78.63
2023-03-26T05:35:30.709Z,78.82
2023-03-26T05:37:57.406Z,78.94
2023-03-26T05:40:25.212Z,79.04
2023-03-26T05:42:58.176Z,79.06
2023-03-26T05:45:37.073Z,79.31
2023-03-26T05:48:15.924Z,79.30
2023-03-26T05:50:42.385Z,79.38
2023-03-26T05:53:09.327Z,79.22
2023-03-26T05:55:57.753Z,79.00
2023-03-26T05:58:34.096Z,78.80
2023-03-26T06:01:25.540Z,78.43
2023-03-26T06:04:15.922Z,78.36
2023-03-26T06:06:52.623Z,78.63
2023-03-26T06:09:19.921Z,78.70
2023-03-26T06:11:46.375Z,78.87
2023-03-26T06:14:12.919Z,79.09
2023-03-26T06:16:50.775Z,79.08
2023-03-26T06:19:20.410Z,79.37
2023-03-26T06:21:55.861Z,79.35
2023-03-26T06:24:26.392Z,79.66
2023-03-26T06:27:21.416Z,80.34
2023-03-26T06:29:59.916Z,81.05
2023-03-26T06:32:38.144Z,81.81
2023-03-26T06:35:15.235Z,82.04
2023-03-26T06:37:42.277Z,82.63
2023-03-26T06:40:09.231Z,83.21
2023-03-26T06:43:09.848Z,83.03
2023-03-26T06:45:52.394Z,83.92
2023-03-26T06:48:44.797Z,84.10
2023-03-26T06:51:49.855Z,84.04
2023-03-26T06:54:39.433Z,84.25
2023-03-26T06:57:14.841Z,84.41
2023-03-26T07:00:17.094Z,84.50
2023-03-26T07:03:04.166Z,84.66
2023-03-26T07:05:49.542Z,84.77
2023-03-26T07:08:34.800Z,85.01
2023-03-26T07:11:39.848Z,84.82
2023-03-26T07:14:25.062Z,85.39
2023-03-26T07:17:05.178Z,85.46
2023-03-26T07:19:36.576Z,85.25
2023-03-26T07:22:03.381Z,85.17
2023-03-26T07:25:08.501Z,84.97
2023-03-26T07:28:24.314Z,85.57
2023-03-26T07:31:29.568Z,85.63
2023-03-26T07:34:42.713Z,85.78
2023-03-26T07:37:52.994Z,85.70
2023-03-26T07:40:46.478Z,86.03
2023-03-26T07:44:01.991Z,86.06
2023-03-26T07:46:41.432Z,86.27
2023-03-26T07:49:31.327Z,86.19
2023-03-26T07:52:16.461Z,86.33
2023-03-26T07:54:52.796Z,86.41
2023-03-26T07:58:02.633Z,86.79
2023-03-26T08:01:26.044Z,86.48
2023-03-26T08:04:24.192Z,86.46
2023-03-26T08:07:45.018Z,86.25
2023-03-26T08:10:39.259Z,86.38
2023-03-26T08:13:26.844Z,86.32
2023-03-26T08:16:00.384Z,86.48
2023-03-26T08:18:54.465Z,86.33
2023-03-26T08:21:28.343Z,86.17
2023-03-26T08:24:00.796Z,85.35
2023-03-26T08:26:58.288Z,85.56
2023-03-26T08:29:34.381Z,85.60
2023-03-26T08:32:01.646Z,85.31
2023-03-26T08:34:28.091Z,85.69
2023-03-26T08:36:54.529Z,86.07
2023-03-26T08:39:22.225Z,85.82
2023-03-26T08:42:10.151Z,85.89
2023-03-26T08:45:00.295Z,85.71
2023-03-26T08:47:45.274Z,85.91
2023-03-26T08:50:29.722Z,86.10
2023-03-26T08:53:23.425Z,85.89
2023-03-26T08:55:56.680Z,85.72
2023-03-26T08:58:45.836Z,85.64
2023-03-26T09:01:33.274Z,85.58
2023-03-26T09:04:11.837Z,85.47
2023-03-26T09:06:59.870Z,85.21
2023-03-26T09:10:09.267Z,85.34
2023-03-26T09:12:54.521Z,85.43
2023-03-26T09:15:27.141Z,84.66
2023-03-26T09:18:16.814Z,84.45
2023-03-26T09:21:22.174Z,84.13
2023-03-26T09:24:10.955Z,84.18
2023-03-26T09:26:47.209Z,83.88
2023-03-26T09:29:52.162Z,83.82
2023-03-26T09:32:42.930Z,83.19
2023-03-26T09:35:26.103Z,83.07
2023-03-26T09:38:12.036Z,83.16
2023-03-26T09:40:53.143Z,83.12
2023-03-26T09:43:45.418Z,83.19
2023-03-26T09:46:29.144Z,83.78
2023-03-26T09:49:10.463Z,83.49
2023-03-26T09:51:46.362Z,82.93
2023-03-26T09:54:44.088Z,82.54
2023-03-26T09:57:39.434Z,83.10
2023-03-26T10:00:20.954Z,83.23
2023-03-26T10:02:58.818Z,83.40
2023-03-26T10:05:44.260Z,82.92
2023-03-26T10:08:20.277Z,82.61
2023-03-26T10:10:53.588Z,82.94
2023-03-26T10:13:34.114Z,83.06
2023-03-26T10:16:40.812Z,83.03
2023-03-26T10:19:29.197Z,82.20
2023-03-26T10:22:14.576Z,82.62
2023-03-26T10:24:54.341Z,82.67
2023-03-26T10:27:44.412Z,82.23
2023-03-26T10:30:56.589Z,82.10
2023-03-26T10:33:40.862Z,82.19
2023-03-26T10:36:36.364Z,82.23
2023-03-26T10:39:11.719Z,81.67
2023-03-26T10:42:10.236Z,81.69
2023-03-26T10:44:57.654Z,81.85
2023-03-26T10:47:50.170Z,81.64
2023-03-26T10:50:26.781Z,82.12
2023-03-26T10:53:03.592Z,81.96
2023-03-26T10:55:47.284Z,81.95
2023-03-26T10:58:29.377Z,82.11
2023-03-26T11:01:37.456Z,81.61
2023-03-26T11:04:15.370Z,81.34
2023-03-26T11:06:59.600Z,80.62
2023-03-26T11:09:48.892Z,79.27
2023-03-26T11:12:28.615Z,78.69
2023-03-26T11:15:07.379Z,78.16
2023-03-26T11:18:01.128Z,78.21
2023-03-26T11:20:37.773Z,78.24
2023-03-26T11:23:43.093Z,78.61
2023-03-26T11:26:16.962Z,79.47
2023-03-26T11:29:04.424Z,80.42
2023-03-26T11:31:46.005Z,80.95
2023-03-26T11:34:21.391Z,81.73
2023-03-26T11:36:54.506Z,82.66
2023-03-26T11:39:27.005Z,82.71
2023-03-26T11:42:02.891Z,82.91
2023-03-26T11:44:42.730Z,82.66
2023-03-26T11:47:10.523Z,82.31
2023-03-26T11:49:39.617Z,82.62
2023-03-26T11:52:07.493Z,81.98
2023-03-26T11:54:33.911Z,81.46
2023-03-26T11:57:07.296Z,81.12
2023-03-26T11:59:49.020Z,81.33
2023-03-26T12:02:29.281Z,81.05
2023-03-26T12:05:27.218Z,81.32
2023-03-26T12:08:01.064Z,81.31
2023-03-26T12:10:34.753Z,80.80
2023-03-26T12:13:21.893Z,79.91
2023-03-26T12:15:48.555Z,79.77
2023-03-26T12:18:24.447Z,78.11
2023-03-26T12:21:22.178Z,77.39
2023-03-26T12:23:56.066Z,76.26
2023-03-26T12:26:41.286Z,75.79
2023-03-26T12:29:18.959Z,74.89
2023-03-26T12:31:48.365Z,73.63
2023-03-26T12:34:16.158Z,73.42
2023-03-26T12:36:52.762Z,73.33
2023-03-26T12:40:10.664Z,72.62
2023-03-26T12:44:44.496Z,73.51
2023-03-26T12:45:43.091Z,72.97
2023-03-26T12:48:15.579Z,72.75
2023-03-26T12:50:59.124Z,72.66
2023-03-26T12:53:46.645Z,71.12
2023-03-26T12:56:36.061Z,71.63
2023-03-26T12:59:18.377Z,71.36
2023-03-26T13:02:34.342Z,71.25
2023-03-26T13:05:19.555Z,70.60
2023-03-26T13:08:00.278Z,69.61
2023-03-26T13:10:45.396Z,68.93
2023-03-26T13:13:33.527Z,69.99
2023-03-26T13:16:28.306Z,71.80
2023-03-26T13:19:15.998Z,72.60
2023-03-26T13:21:59.524Z,71.76
2023-03-26T13:24:47.381Z,72.14
2023-03-26T13:27:50.767Z,71.51
2023-03-26T13:30:22.982Z,70.11
2023-03-26T13:33:02.841Z,69.25
2023-03-26T13:35:29.636Z,68.82
2023-03-26T13:38:16.026Z,68.82
2023-03-26T13:41:16.720Z,68.43
2023-03-26T13:44:13.499Z,68.00
2023-03-26T13:46:51.748Z,68.06
2023-03-26T13:49:24.532Z,68.24
2023-03-26T13:51:57.244Z,67.56
2023-03-26T13:54:31.234Z,67.75
2023-03-26T13:57:06.697Z,67.66
2023-03-26T13:59:41.447Z,67.06
2023-03-26T14:02:12.001Z,66.45
2023-03-26T14:04:46.301Z,66.15
2023-03-26T14:07:17.919Z,66.44
2023-03-26T14:09:54.291Z,67.02
2023-03-26T14:12:48.906Z,65.95
2023-03-26T14:15:42.200Z,64.32
2023-03-26T14:18:28.385Z,63.89
2023-03-26T14:21:21.555Z,63.60
2023-03-26T14:24:09.647Z,64.18
2023-03-26T14:26:38.989Z,64.28
2023-03-26T14:29:09.959Z,64.14
2023-03-26T14:31:43.295Z,64.27
2023-03-26T14:34:30.137Z,63.59
2023-03-26T14:37:06.616Z,62.96
2023-03-26T14:40:01.364Z,62.63
2023-03-26T14:43:07.920Z,62.17
2023-03-26T14:45:58.340Z,61.36
2023-03-26T14:48:44.255Z,61.16
2023-03-26T14:51:32.386Z,61.66
2023-03-26T14:54:11.979Z,60.48
2023-03-26T14:56:41.267Z,61.02
2023-03-26T14:59:26.748Z,60.49
2023-03-26T15:02:05.497Z,59.14
2023-03-26T15:04:38.303Z,58.70
2023-03-26T15:07:30.080Z,58.10
2023-03-26T15:10:14.484Z,58.32
2023-03-26T15:13:13.170Z,58.67
2023-03-26T15:15:58.369Z,59.20
2023-03-26T15:18:43.613Z,59.33
2023-03-26T15:21:22.859Z,58.62
2023-03-26T15:23:54.080Z,58.98
2023-03-26T15:26:48.446Z,59.27
2023-03-26T15:29:30.247Z,59.33
2023-03-26T15:31:57.483Z,59.66
2023-03-26T15:34:43.740Z,59.61
2023-03-26T15:37:22.257Z,60.04
2023-03-26T15:40:16.080Z,60.06
2023-03-26T15:43:11.891Z,60.12
2023-03-26T15:45:42.352Z,60.15
2023-03-26T15:48:12.056Z,59.75
2023-03-26T15:51:07.498Z,60.22
2023-03-26T15:53:54.917Z,61.04
2023-03-26T15:56:43.459Z,61.68
2023-03-26T15:59:42.494Z,62.04
2023-03-26T16:02:36.338Z,62.35
2023-03-26T16:05:19.291Z,62.27
2023-03-26T16:08:02.757Z,62.50
2023-03-26T16:10:42.239Z,62.66
2023-03-26T16:13:30.443Z,63.01
2023-03-26T16:16:03.383Z,63.38
2023-03-26T16:18:32.680Z,63.56
2023-03-26T16:21:03.097Z,63.88
2023-03-26T16:23:34.543Z,64.38
2023-03-26T16:26:31.399Z,64.86
2023-03-26T16:29:18.241Z,65.19
2023-03-26T16:32:07.890Z,65.77
2023-03-26T16:34:41.888Z,66.05
2023-03-26T16:37:35.926Z,66.86
2023-03-26T16:40:17.971Z,67.75
2023-03-26T16:42:53.256Z,68.59
2023-03-26T16:45:32.102Z,69.40
2023-03-26T16:48:16.713Z,70.00
2023-03-26T16:51:08.507Z,70.90
2023-03-26T16:53:42.685Z,71.03
2023-03-26T16:56:33.536Z,71.29
2023-03-26T16:59:09.990Z,71.52
2023-03-26T17:02:08.350Z,71.86
2023-03-26T17:04:36.789Z,71.81
2023-03-26T17:07:08.488Z,71.92
2023-03-26T17:10:00.442Z,72.07
2023-03-26T17:12:32.717Z,72.09
2023-03-26T17:14:59.064Z,72.04
2023-03-26T17:17:37.772Z,72.38
2023-03-26T17:20:38.549Z,72.84
2023-03-26T17:23:10.752Z,73.04
2023-03-26T17:26:08.401Z,73.52
2023-03-26T17:29:10.843Z,73.18
2023-03-26T17:31:49.685Z,73.10
2023-03-26T17:34:56.498Z,72.85
2023-03-26T17:37:23.369Z,73.07
2023-03-26T17:39:52.836Z,73.19
2023-03-26T17:42:27.069Z,73.65
2023-03-26T17:44:55.453Z,73.99
2023-03-26T17:47:42.319Z,74.10
2023-03-26T17:50:18.251Z,74.41
2023-03-26T17:53:03.687Z,74.52
2023-03-26T17:55:32.403Z,74.91
2023-03-26T17:58:31.850Z,75.27
2023-03-26T18:01:07.621Z,75.15
2023-03-26T18:03:43.981Z,74.95
2023-03-26T18:06:19.705Z,74.57
2023-03-26T18:09:09.714Z,74.00
2023-03-26T21:42:51.784Z,88.04
2023-03-26T21:48:10.611Z,88.32
2023-03-26T22:05:40.539Z,89.48
2023-03-26T22:08:08.165Z,89.52
2023-03-26T22:10:34.743Z,89.62
2023-03-26T22:13:01.274Z,90.12
2023-03-26T22:15:30.455Z,90.29
2023-03-26T22:18:01.871Z,89.87
2023-03-26T22:20:28.544Z,90.31
2023-03-26T22:22:55.802Z,90.42
2023-03-26T22:25:23.337Z,89.67
2023-03-26T22:27:50.766Z,88.43
2023-03-26T22:30:17.713Z,88.05
2023-03-26T22:32:44.652Z,87.84
2023-03-26T22:35:11.349Z,87.77
2023-03-26T22:37:37.871Z,87.25
2023-03-26T22:40:08.806Z,87.28
2023-03-26T22:42:36.016Z,86.69
2023-03-26T22:45:02.767Z,86.96
2023-03-26T22:47:30.481Z,87.14
2023-03-26T22:49:57.197Z,87.45
2023-03-26T22:52:23.701Z,87.28
2023-03-26T22:54:50.130Z,87.39
2023-03-26T22:57:16.983Z,87.42
2023-03-26T22:59:43.848Z,87.02
2023-03-26T23:02:12.243Z,87.42
2023-03-26T23:04:38.762Z,87.74
2023-03-26T23:07:05.846Z,88.02
2023-03-26T23:09:32.366Z,87.89
2023-03-26T23:11:58.838Z,88.13
2023-03-26T23:14:25.375Z,88.13
2023-03-26T23:16:51.904Z,88.03
2023-03-26T23:19:18.519Z,87.12
2023-03-26T23:21:45.353Z,87.36
2023-03-26T23:24:11.790Z,86.77
2023-03-26T23:26:49.650Z,87.07
2023-03-26T23:29:17.227Z,87.07
2023-03-26T23:31:43.857Z,86.47
2023-03-26T23:34:10.938Z,86.86
2023-03-26T23:36:37.420Z,86.66
2023-03-26T23:39:04.637Z,86.53
2023-03-26T23:41:31.376Z,86.89
2023-03-26T23:43:57.839Z,86.77
2023-03-26T23:46:30.185Z,86.76
2023-03-26T23:48:59.534Z,86.66
2023-03-26T23:51:26.029Z,86.99
2023-03-26T23:53:53.378Z,86.57
2023-03-26T23:56:20.193Z,86.31
2023-03-26T23:58:48.559Z,86.60
